< < Back
Terminal Aerodrome Forecast


Current Version              Previous Versions:   1  2  3  4  5  6  7  8  9  

Terminal Aerodrome Forecast

673
FTUS44 KOHX 221100
TAFCSV
TAF
KCSV 221125Z 2212/2312 00000KT 6SM BR SKC
      TEMPO 2212/2214 3SM BR SKC
     FM221400 28006KT P6SM SCT035 SCT150
     FM222300 VRB02KT P6SM SCT250
     FM230400 00000KT 4SM BR SCT250
     FM230900 00000KT 2SM BR SCT250=



Latest METAR

159
SAUS70 KWBC 221400 RRM
MTRCSV
METAR KCSV 221353Z AUTO 26007KT 10SM FEW031 27/22 A3018 RMK AO2 SLP196
T02670217


USA.gov is the U.S. government's official web portal to all federal, state and local government web resources and services.